Time;durP1;ratioP1;P1;durP2;ratioP2;P2;SDS_P1;SDS_P2;PMS_P1;PMS_P2;Temp;Humidity;BMP_temperature;BMP_pressure;BME280_temperature;BME280_humidity;BME280_pressure;Samples;Min_cycle;Max_cycle;Signal;HPM_P1;HPM_P2
2023/09/26 00:00:31;;;;;;;11.83;9.00;;;21.70;99.90;;;;;;5086087;28;20189;-81
2023/09/26 00:02:57;;;;;;;14.50;9.67;;;21.70;99.90;;;;;;5086405;28;20404;-82
2023/09/26 00:05:23;;;;;;;14.17;9.60;;;21.70;99.90;;;;;;5086209;28;20413;-82
2023/09/26 00:07:49;;;;;;;13.93;9.37;;;21.70;99.90;;;;;;5085092;28;20679;-81
2023/09/26 00:10:16;;;;;;;13.17;9.60;;;21.60;99.90;;;;;;5086231;28;20214;-82
2023/09/26 00:12:42;;;;;;;13.97;10.13;;;21.60;99.90;;;;;;5085035;28;20405;-82
2023/09/26 00:15:08;;;;;;;15.30;10.47;;;21.60;99.90;;;;;;5084922;28;20460;-81
2023/09/26 00:17:34;;;;;;;15.87;9.53;;;21.60;99.90;;;;;;5084710;28;20409;-81
2023/09/26 00:20:04;;;;;;;13.13;9.27;;;21.60;99.90;;;;;;5084706;28;20436;-81
2023/09/26 00:22:30;;;;;;;12.50;9.83;;;21.50;99.90;;;;;;5085427;28;20928;-81
2023/09/26 00:24:56;;;;;;;12.93;9.17;;;21.50;99.90;;;;;;5086005;28;20478;-81
2023/09/26 00:27:21;;;;;;;14.50;10.23;;;21.50;99.90;;;;;;5086414;28;20941;-81
2023/09/26 00:29:47;;;;;;;18.77;10.70;;;21.50;99.90;;;;;;5086616;28;20287;-82
2023/09/26 00:32:14;;;;;;;13.17;8.73;;;21.40;99.90;;;;;;5086157;28;20168;-82
2023/09/26 00:34:40;;;;;;;12.00;9.87;;;21.40;99.90;;;;;;5084671;28;20980;-81
2023/09/26 00:37:06;;;;;;;18.97;10.77;;;21.40;99.90;;;;;;5084569;28;20939;-82
2023/09/26 00:39:34;;;;;;;14.47;9.80;;;21.30;99.90;;;;;;5083445;28;20460;-82
2023/09/26 00:42:00;;;;;;;14.93;8.83;;;21.30;99.90;;;;;;5084161;28;20416;-82
2023/09/26 00:44:26;;;;;;;12.70;10.00;;;21.30;99.90;;;;;;5084537;28;20494;-82
2023/09/26 00:46:52;;;;;;;14.90;9.47;;;21.30;99.90;;;;;;5084298;28;20177;-82
2023/09/26 00:49:18;;;;;;;14.53;10.30;;;21.30;99.90;;;;;;5084429;28;20718;-83
2023/09/26 00:51:43;;;;;;;13.20;10.00;;;21.20;99.90;;;;;;5084385;28;20519;-82
2023/09/26 00:54:10;;;;;;;14.67;9.40;;;21.30;99.90;;;;;;5083941;28;20224;-82
2023/09/26 00:56:38;;;;;;;18.27;11.07;;;21.20;99.90;;;;;;5084453;28;20735;-81
2023/09/26 00:59:05;;;;;;;10.30;8.80;;;21.20;99.90;;;;;;5084468;28;20397;-82
2023/09/26 01:01:34;;;;;;;13.17;9.70;;;21.20;99.90;;;;;;5085586;28;20961;-82
2023/09/26 01:04:01;;;;;;;11.83;10.23;;;21.10;99.90;;;;;;5084220;28;20417;-81
2023/09/26 01:06:27;;;;;;;13.87;10.40;;;21.10;99.90;;;;;;5085629;28;20789;-82
2023/09/26 01:08:52;;;;;;;13.93;10.37;;;21.10;99.90;;;;;;5083705;28;20405;-82
2023/09/26 01:11:18;;;;;;;13.13;9.40;;;21.10;99.90;;;;;;5085290;28;20220;-83
2023/09/26 01:13:45;;;;;;;13.70;10.30;;;21.10;99.90;;;;;;5085657;28;20716;-83
2023/09/26 01:16:18;;;;;;;14.17;10.50;;;21.10;99.90;;;;;;5084053;28;20455;-82
2023/09/26 01:18:45;;;;;;;15.30;9.47;;;21.10;99.90;;;;;;5084289;28;20446;-81
2023/09/26 01:21:11;;;;;;;14.80;11.27;;;21.00;99.90;;;;;;5084779;28;20443;-83
2023/09/26 01:23:39;;;;;;;11.40;9.17;;;21.00;99.90;;;;;;5083926;28;20409;-82
2023/09/26 01:26:05;;;;;;;14.90;10.23;;;20.90;99.90;;;;;;5085667;28;20437;-82
2023/09/26 01:28:31;;;;;;;13.00;9.70;;;20.90;99.90;;;;;;5085740;28;20397;-82
2023/09/26 01:30:57;;;;;;;13.87;9.60;;;20.90;99.90;;;;;;5085152;28;20515;-82
2023/09/26 01:33:23;;;;;;;17.00;11.17;;;20.90;99.90;;;;;;5084312;28;20775;-82
2023/09/26 01:35:51;;;;;;;16.43;11.30;;;20.90;99.90;;;;;;5083529;28;20695;-82
2023/09/26 01:38:19;;;;;;;14.07;10.97;;;20.90;99.90;;;;;;5085546;28;20408;-82
2023/09/26 01:40:45;;;;;;;15.13;10.27;;;20.90;99.90;;;;;;5085011;28;20877;-82
2023/09/26 01:43:11;;;;;;;11.20;9.30;;;20.90;99.90;;;;;;5085435;28;20396;-81
2023/09/26 01:45:37;;;;;;;13.43;9.20;;;20.90;99.90;;;;;;5084559;28;20547;-82
2023/09/26 01:48:05;;;;;;;14.60;9.90;;;20.80;99.90;;;;;;5087881;28;20172;-82
2023/09/26 01:50:31;;;;;;;11.07;9.20;;;20.80;99.90;;;;;;5088683;28;20253;-82
2023/09/26 01:52:56;;;;;;;13.70;10.73;;;20.80;99.90;;;;;;5089015;28;20941;-82
2023/09/26 01:55:22;;;;;;;16.37;10.67;;;20.80;99.90;;;;;;5087463;28;20646;-82
2023/09/26 01:57:51;;;;;;;15.90;10.07;;;20.80;99.90;;;;;;5087586;28;20177;-82
2023/09/26 02:00:19;;;;;;;13.70;10.50;;;20.80;99.90;;;;;;5087331;28;20519;-82
2023/09/26 02:02:46;;;;;;;12.90;9.50;;;20.80;99.90;;;;;;5087012;28;20401;-83
2023/09/26 02:05:15;;;;;;;15.77;11.10;;;20.80;99.90;;;;;;5086888;28;20609;-81
2023/09/26 02:07:41;;;;;;;13.10;9.47;;;20.70;99.90;;;;;;5087088;28;20413;-83
2023/09/26 02:10:07;;;;;;;13.37;9.60;;;20.70;99.90;;;;;;5088582;28;20961;-82
2023/09/26 02:12:35;;;;;;;12.93;9.60;;;20.70;99.90;;;;;;5088345;28;20405;-82
2023/09/26 02:15:04;;;;;;;12.03;9.70;;;20.70;99.90;;;;;;5088350;28;20432;-82
2023/09/26 02:17:33;;;;;;;13.70;10.10;;;20.70;99.90;;;;;;5087088;28;20421;-81
2023/09/26 02:20:00;;;;;;;11.83;9.43;;;20.60;99.90;;;;;;5086159;28;20441;-82
2023/09/26 02:22:25;;;;;;;12.43;10.10;;;20.60;99.90;;;;;;5086713;28;20921;-82
2023/09/26 02:24:52;;;;;;;14.30;9.97;;;20.60;99.90;;;;;;5086645;28;20436;-82
2023/09/26 02:27:17;;;;;;;14.53;10.90;;;20.60;99.90;;;;;;5086963;28;20183;-82
2023/09/26 02:29:44;;;;;;;13.63;9.90;;;20.50;99.90;;;;;;5086907;28;20456;-82
2023/09/26 02:32:10;;;;;;;13.07;9.50;;;20.60;99.90;;;;;;5086937;28;20184;-82
2023/09/26 02:34:36;;;;;;;15.50;10.70;;;20.50;99.90;;;;;;5086557;28;20445;-81
2023/09/26 02:37:02;;;;;;;14.97;10.27;;;20.50;99.90;;;;;;5087813;28;20417;-82
2023/09/26 02:39:28;;;;;;;17.53;10.47;;;20.50;99.90;;;;;;5086691;28;20429;-81
2023/09/26 02:41:54;;;;;;;15.57;10.23;;;20.50;99.90;;;;;;5086649;28;20180;-82
2023/09/26 02:44:20;;;;;;;12.73;9.70;;;20.50;99.90;;;;;;5087809;28;20412;-82
2023/09/26 02:46:45;;;;;;;13.70;10.87;;;20.40;99.90;;;;;;5086502;28;20495;-82
2023/09/26 02:49:11;;;;;;;15.17;10.83;;;20.40;99.90;;;;;;5086526;28;20204;-81
2023/09/26 02:51:37;;;;;;;15.97;9.87;;;20.40;99.90;;;;;;5087645;28;20227;-82
2023/09/26 02:54:03;;;;;;;12.20;9.93;;;20.40;99.90;;;;;;5086270;28;20235;-83
2023/09/26 02:56:28;;;;;;;13.33;10.30;;;20.40;99.90;;;;;;5087352;28;20204;-82
2023/09/26 02:58:54;;;;;;;14.83;11.83;;;20.40;99.90;;;;;;5086976;28;20443;-81
2023/09/26 03:01:20;;;;;;;14.80;10.23;;;20.40;99.90;;;;;;5087691;28;20239;-83
2023/09/26 03:03:46;;;;;;;15.40;11.37;;;20.30;99.90;;;;;;5086132;28;20172;-82
2023/09/26 03:06:12;;;;;;;14.60;10.03;;;20.30;99.90;;;;;;5086033;28;20957;-82
2023/09/26 03:08:38;;;;;;;15.00;10.50;;;20.30;99.90;;;;;;5086125;28;20420;-82
2023/09/26 03:11:03;;;;;;;13.53;10.37;;;20.40;99.90;;;;;;5085644;28;20247;-82
2023/09/26 03:13:33;;;;;;;14.10;10.80;;;20.40;99.90;;;;;;5087369;28;20221;-81
2023/09/26 03:15:59;;;;;;;12.43;9.40;;;20.50;99.90;;;;;;5085741;28;20196;-82
2023/09/26 03:18:26;;;;;;;11.90;9.63;;;20.60;99.90;;;;;;5087385;28;20404;-82
2023/09/26 03:20:52;;;;;;;12.13;8.33;;;20.60;99.90;;;;;;5086056;28;21045;-82
2023/09/26 03:23:22;;;;;;;11.47;9.93;;;20.60;99.90;;;;;;5085535;28;20416;-82
2023/09/26 03:25:47;;;;;;;11.30;9.13;;;20.70;99.90;;;;;;5085601;28;20550;-82
2023/09/26 03:28:13;;;;;;;11.60;9.47;;;20.70;99.90;;;;;;5085866;28;20420;-82
2023/09/26 03:30:43;;;;;;;13.67;9.40;;;20.70;99.90;;;;;;5085263;28;20229;-83
2023/09/26 03:33:10;;;;;;;14.53;10.53;;;20.70;99.90;;;;;;5085613;28;20203;-83
2023/09/26 03:35:36;;;;;;;13.60;10.87;;;20.70;99.90;;;;;;5086850;28;20545;-83
2023/09/26 03:38:01;;;;;;;13.13;9.03;;;20.70;99.90;;;;;;5087057;28;20897;-82
2023/09/26 03:40:27;;;;;;;15.87;9.73;;;20.70;99.90;;;;;;5085691;28;20435;-82
2023/09/26 03:42:53;;;;;;;11.50;8.23;;;20.70;99.90;;;;;;5086844;28;20183;-82
2023/09/26 03:45:18;;;;;;;14.00;10.00;;;20.80;99.90;;;;;;5085114;28;20569;-83
2023/09/26 03:47:44;;;;;;;13.10;9.37;;;20.80;99.90;;;;;;5085245;28;20661;-82
2023/09/26 03:50:10;;;;;;;11.80;9.23;;;20.70;99.90;;;;;;5085137;28;20243;-84
2023/09/26 03:52:35;;;;;;;12.93;10.03;;;20.70;99.90;;;;;;5085250;28;20164;-82
2023/09/26 03:55:02;;;;;;;32.50;19.93;;;20.80;99.90;;;;;;5086175;28;20376;-82
2023/09/26 03:57:31;;;;;;;13.10;9.93;;;20.80;99.90;;;;;;5085195;28;20184;-82
2023/09/26 03:59:56;;;;;;;14.00;10.00;;;20.70;99.90;;;;;;5084570;28;20437;-82
2023/09/26 04:02:22;;;;;;;13.77;11.13;;;20.70;99.90;;;;;;5086498;28;20432;-82
2023/09/26 04:04:48;;;;;;;13.47;9.87;;;20.80;99.90;;;;;;5083292;28;20192;-82
2023/09/26 04:07:14;;;;;;;14.43;9.40;;;20.70;99.90;;;;;;5085296;28;20188;-82
2023/09/26 04:09:40;;;;;;;11.07;9.83;;;20.80;99.90;;;;;;5085607;28;20339;-82
2023/09/26 04:12:06;;;;;;;13.30;9.70;;;20.80;99.90;;;;;;5084838;28;20421;-82
2023/09/26 04:14:32;;;;;;;12.07;9.00;;;20.80;99.90;;;;;;5086271;28;20442;-82
2023/09/26 04:16:58;;;;;;;9.50;8.20;;;20.80;99.90;;;;;;5083682;28;20500;-82
2023/09/26 04:19:23;;;;;;;13.63;9.37;;;20.80;99.90;;;;;;5085041;28;20979;-82
2023/09/26 04:21:52;;;;;;;17.63;9.90;;;20.80;99.90;;;;;;5083690;28;20435;-82
2023/09/26 04:24:19;;;;;;;12.63;10.17;;;20.80;99.90;;;;;;5086177;28;20302;-82
2023/09/26 04:26:45;;;;;;;13.20;9.70;;;20.70;99.90;;;;;;5086105;28;20913;-82
2023/09/26 04:29:11;;;;;;;11.90;8.80;;;20.70;99.90;;;;;;5084316;28;20495;-82
2023/09/26 04:31:37;;;;;;;11.50;8.37;;;20.70;99.90;;;;;;5084391;28;20816;-82
2023/09/26 04:34:03;;;;;;;13.67;10.50;;;20.80;99.90;;;;;;5084345;28;20778;-82
2023/09/26 04:36:29;;;;;;;10.93;9.03;;;20.70;99.90;;;;;;5084242;28;20661;-82
2023/09/26 04:38:55;;;;;;;12.23;8.60;;;20.70;99.90;;;;;;5084549;28;20417;-82
2023/09/26 04:41:21;;;;;;;13.77;9.30;;;20.70;99.90;;;;;;5083483;28;20565;-82
2023/09/26 04:43:47;;;;;;;12.27;9.40;;;20.70;99.90;;;;;;5083052;28;20417;-82
2023/09/26 04:46:13;;;;;;;13.50;9.70;;;20.70;99.90;;;;;;5084251;28;20449;-82
2023/09/26 04:48:40;;;;;;;13.17;9.10;;;20.60;99.90;;;;;;5085466;28;20168;-81
2023/09/26 04:51:11;;;;;;;13.40;10.03;;;20.60;99.90;;;;;;5083657;28;20897;-82
2023/09/26 04:53:37;;;;;;;13.73;9.50;;;20.60;99.90;;;;;;5083750;28;20484;-82
2023/09/26 04:56:03;;;;;;;11.50;9.80;;;20.50;99.90;;;;;;5083767;28;20447;-81
2023/09/26 04:58:30;;;;;;;13.10;9.30;;;20.50;99.90;;;;;;5082927;28;20559;-82
2023/09/26 05:00:56;;;;;;;11.00;9.27;;;20.50;99.90;;;;;;5082460;28;20455;-82
2023/09/26 05:03:22;;;;;;;17.10;9.77;;;20.50;99.90;;;;;;5083129;28;20420;-82
2023/09/26 05:05:48;;;;;;;11.30;8.77;;;20.50;99.90;;;;;;5083119;28;20502;-82
2023/09/26 05:08:13;;;;;;;12.63;9.40;;;20.50;99.90;;;;;;5084406;28;20435;-81
2023/09/26 05:10:39;;;;;;;13.67;11.20;;;20.50;99.90;;;;;;5083165;28;20230;-82
2023/09/26 05:13:05;;;;;;;11.13;8.90;;;20.50;99.90;;;;;;5080177;28;20189;-82
2023/09/26 05:15:34;;;;;;;12.80;10.70;;;20.50;99.90;;;;;;5072353;28;20241;-82
2023/09/26 05:17:59;;;;;;;14.17;10.63;;;20.50;99.90;;;;;;5083007;28;20421;-82
2023/09/26 05:20:25;;;;;;;15.50;9.67;;;20.50;99.90;;;;;;5078670;28;20689;-82
2023/09/26 05:22:51;;;;;;;13.17;10.13;;;20.50;99.90;;;;;;5068124;28;20176;-82
2023/09/26 05:25:17;;;;;;;11.00;9.30;;;20.60;99.90;;;;;;5081028;28;20674;-82
2023/09/26 05:27:43;;;;;;;11.83;9.90;;;20.60;99.90;;;;;;5077987;28;20417;-82
2023/09/26 05:30:11;;;;;;;16.27;10.30;;;20.60;99.90;;;;;;5071165;28;20464;-82
2023/09/26 05:32:37;;;;;;;13.47;10.13;;;20.60;99.90;;;;;;5086569;28;20497;-82
2023/09/26 05:35:04;;;;;;;15.87;10.20;;;20.70;99.90;;;;;;5078855;28;20516;-82
2023/09/26 05:37:30;;;;;;;13.80;10.30;;;20.70;99.90;;;;;;5078889;28;20512;-82
2023/09/26 05:39:55;;;;;;;13.37;9.83;;;20.70;99.90;;;;;;5085310;28;20561;-81
2023/09/26 05:42:22;;;;;;;13.63;10.20;;;20.80;99.90;;;;;;5083222;28;20769;-82
2023/09/26 05:44:47;;;;;;;43.87;22.43;;;20.80;99.90;;;;;;5084742;28;20204;-81
2023/09/26 05:47:13;;;;;;;14.30;11.00;;;20.90;99.90;;;;;;5079216;28;20512;-82
2023/09/26 05:49:39;;;;;;;15.17;11.63;;;20.90;99.90;;;;;;5081057;28;20203;-82
2023/09/26 05:52:04;;;;;;;16.07;11.10;;;20.90;99.90;;;;;;5083894;28;20652;-82
2023/09/26 05:54:33;;;;;;;16.03;10.70;;;21.00;99.90;;;;;;5082411;28;20294;-81
2023/09/26 05:56:59;;;;;;;14.00;10.70;;;21.10;99.90;;;;;;5081669;28;20185;-82
2023/09/26 05:59:25;;;;;;;14.93;11.50;;;21.10;99.90;;;;;;5085035;28;20400;-82
2023/09/26 06:01:50;;;;;;;14.30;10.60;;;21.10;99.90;;;;;;5084497;28;20452;-82
2023/09/26 06:04:19;;;;;;;12.87;9.80;;;21.20;99.90;;;;;;5079889;28;20233;-81
2023/09/26 06:06:45;;;;;;;14.73;10.77;;;21.20;99.90;;;;;;5084020;28;20184;-82
2023/09/26 06:09:11;;;;;;;16.20;10.20;;;21.30;99.90;;;;;;5077747;28;20444;-82
2023/09/26 06:11:37;;;;;;;11.83;9.93;;;21.30;99.90;;;;;;5069820;28;21097;-82
2023/09/26 06:14:02;;;;;;;12.17;10.90;;;21.40;99.90;;;;;;5080683;28;20398;-82
2023/09/26 06:16:28;;;;;;;14.03;10.50;;;21.40;99.90;;;;;;5086119;28;20200;-82
2023/09/26 06:18:55;;;;;;;16.33;10.63;;;21.50;99.90;;;;;;5085808;28;20176;-82
2023/09/26 06:21:20;;;;;;;36.53;11.10;;;21.50;99.90;;;;;;5083804;28;20231;-82
2023/09/26 06:23:48;;;;;;;12.00;9.77;;;21.60;99.90;;;;;;5077984;28;20487;-82
2023/09/26 06:26:14;;;;;;;13.77;10.30;;;21.70;99.90;;;;;;5074228;28;20231;-81
2023/09/26 06:28:40;;;;;;;15.43;9.77;;;21.70;99.90;;;;;;5075836;28;20661;-81
2023/09/26 06:31:07;;;;;;;12.87;10.50;;;21.80;99.90;;;;;;5078770;28;20745;-81
2023/09/26 06:33:33;;;;;;;10.33;9.27;;;21.80;99.90;;;;;;5077493;28;20814;-82
2023/09/26 06:35:59;;;;;;;11.67;9.23;;;21.90;99.90;;;;;;5080980;28;20457;-81
2023/09/26 06:38:24;;;;;;;13.53;9.80;;;22.00;99.90;;;;;;5085361;28;20505;-81
2023/09/26 06:41:02;;;;;;;13.87;10.30;;;22.00;99.90;;;;;;5077588;28;20390;-81
2023/09/26 06:43:29;;;;;;;14.50;10.40;;;22.10;99.90;;;;;;5081268;28;20180;-82
2023/09/26 06:45:55;;;;;;;16.47;10.60;;;22.10;99.90;;;;;;5077813;28;21042;-81
2023/09/26 06:48:21;;;;;;;21.20;9.50;;;22.20;99.90;;;;;;5067992;28;20438;-81
2023/09/26 06:50:46;;;;;;;11.13;10.03;;;22.30;99.90;;;;;;5069016;28;20546;-82
2023/09/26 06:53:12;;;;;;;13.07;10.23;;;22.30;99.90;;;;;;5065910;28;20191;-81
2023/09/26 06:55:39;;;;;;;16.53;10.67;;;22.40;99.90;;;;;;5057806;28;20393;-81
2023/09/26 06:58:05;;;;;;;12.87;10.43;;;22.50;99.90;;;;;;5065959;28;20173;-81
2023/09/26 07:00:31;;;;;;;13.57;10.10;;;22.50;99.90;;;;;;5076146;28;20480;-80
2023/09/26 07:02:57;;;;;;;13.80;9.63;;;22.60;99.90;;;;;;5077373;28;20419;-81
2023/09/26 07:05:26;;;;;;;12.23;9.33;;;22.70;99.90;;;;;;5080178;28;20792;-81
2023/09/26 07:07:51;;;;;;;12.87;9.60;;;22.80;99.90;;;;;;5080947;28;20184;-81
2023/09/26 07:10:17;;;;;;;12.00;9.10;;;22.80;99.90;;;;;;5081783;28;20515;-81
2023/09/26 07:12:44;;;;;;;11.97;9.20;;;22.90;99.90;;;;;;5080342;28;20654;-82
2023/09/26 07:15:13;;;;;;;10.83;9.07;;;22.90;99.90;;;;;;5095841;28;20776;-81
2023/09/26 07:17:39;;;;;;;11.40;9.27;;;23.00;99.90;;;;;;5082774;28;20471;-81
2023/09/26 07:20:07;;;;;;;12.23;9.20;;;23.00;99.90;;;;;;5067588;28;20534;-82
2023/09/26 07:22:34;;;;;;;12.03;10.40;;;23.00;99.90;;;;;;5073063;28;20186;-82
2023/09/26 07:25:00;;;;;;;13.67;9.50;;;23.00;99.90;;;;;;5068377;28;20452;-81
2023/09/26 07:27:26;;;;;;;10.80;9.27;;;23.10;99.90;;;;;;5076130;28;20571;-82
2023/09/26 07:29:52;;;;;;;10.43;8.10;;;23.20;99.90;;;;;;5072216;28;21144;-81
2023/09/26 07:32:18;;;;;;;9.00;8.10;;;23.20;99.90;;;;;;5086248;28;20457;-82
2023/09/26 07:34:44;;;;;;;10.60;8.67;;;23.20;99.90;;;;;;5068565;28;20830;-82
2023/09/26 07:37:11;;;;;;;10.40;9.40;;;23.20;99.90;;;;;;5074675;28;20482;-81
2023/09/26 07:39:37;;;;;;;9.57;8.67;;;23.20;99.90;;;;;;5064831;28;20760;-82
2023/09/26 07:42:03;;;;;;;9.17;8.27;;;23.30;99.90;;;;;;5075699;28;20432;-82
2023/09/26 07:44:29;;;;;;;16.67;10.30;;;23.30;99.90;;;;;;5075935;28;20199;-81
2023/09/26 07:46:55;;;;;;;76.33;47.00;;;23.30;99.90;;;;;;5076929;28;20976;-82
2023/09/26 07:49:20;;;;;;;17.07;12.30;;;23.30;99.90;;;;;;5078281;28;20861;-81
2023/09/26 07:51:48;;;;;;;12.53;10.40;;;23.40;99.90;;;;;;5079759;28;20220;-81
2023/09/26 07:54:14;;;;;;;10.73;9.60;;;23.40;99.90;;;;;;5078331;28;20233;-81
2023/09/26 07:56:40;;;;;;;10.97;9.97;;;23.50;99.90;;;;;;5077751;28;20467;-81
2023/09/26 07:59:05;;;;;;;8.90;8.00;;;23.60;99.90;;;;;;5080531;28;20751;-82
2023/09/26 08:01:31;;;;;;;11.00;7.83;;;23.70;99.90;;;;;;5071630;28;20249;-81
2023/09/26 08:03:57;;;;;;;14.40;8.70;;;23.80;99.90;;;;;;5068707;28;20187;-80
2023/09/26 08:06:22;;;;;;;10.00;8.60;;;23.90;99.90;;;;;;5073667;28;20269;-82
2023/09/26 08:08:48;;;;;;;13.33;8.10;;;24.10;99.90;;;;;;5075138;28;20633;-82
2023/09/26 08:11:14;;;;;;;11.23;8.13;;;24.30;99.90;;;;;;5069926;28;20804;-82
2023/09/26 08:13:40;;;;;;;9.27;8.37;;;24.60;99.90;;;;;;5071165;28;20180;-81
2023/09/26 08:16:06;;;;;;;10.43;8.40;;;24.70;99.90;;;;;;5068634;28;20540;-82
2023/09/26 08:18:32;;;;;;;8.70;7.37;;;24.90;99.90;;;;;;5070603;28;21387;-81
2023/09/26 08:20:58;;;;;;;8.30;7.53;;;25.20;99.90;;;;;;5072283;28;20452;-82
2023/09/26 08:23:30;;;;;;;8.10;7.27;;;25.30;99.90;;;;;;5071461;28;20431;-81
2023/09/26 08:26:01;;;;;;;9.00;7.60;;;25.40;99.90;;;;;;5068460;28;20740;-81
2023/09/26 08:28:28;;;;;;;8.20;7.40;;;25.70;99.90;;;;;;5070123;28;21011;-81
2023/09/26 08:30:56;;;;;;;9.57;7.60;;;25.90;99.90;;;;;;5067772;28;20900;-82
2023/09/26 08:33:26;;;;;;;8.43;6.93;;;26.00;99.90;;;;;;5078459;28;20928;-81
2023/09/26 08:35:52;;;;;;;8.70;7.83;;;26.20;99.90;;;;;;5071842;28;20460;-81
2023/09/26 08:38:19;;;;;;;7.90;6.97;;;26.40;99.90;;;;;;5076441;28;20500;-82
2023/09/26 08:40:48;;;;;;;8.00;7.20;;;26.60;99.90;;;;;;5074863;28;20476;-82
2023/09/26 08:43:15;;;;;;;9.03;7.33;;;26.60;99.90;;;;;;5078259;28;20555;-81
2023/09/26 08:45:41;;;;;;;9.90;8.00;;;26.60;99.90;;;;;;5076863;28;20456;-82
2023/09/26 08:48:07;;;;;;;8.97;8.00;;;26.60;99.90;;;;;;5078932;28;20440;-82
2023/09/26 08:50:33;;;;;;;8.73;7.13;;;26.50;99.90;;;;;;5076257;28;20323;-81
2023/09/26 08:53:01;;;;;;;7.90;7.10;;;26.40;99.90;;;;;;5077484;28;20692;-82
2023/09/26 08:55:27;;;;;;;8.63;7.00;;;26.40;99.90;;;;;;5079039;28;20765;-82
2023/09/26 08:57:55;;;;;;;8.33;7.10;;;26.30;99.90;;;;;;5080986;28;21220;-81
2023/09/26 09:00:22;;;;;;;11.70;8.00;;;26.20;99.90;;;;;;5079402;28;20452;-82
2023/09/26 09:02:49;;;;;;;8.57;7.27;;;26.30;99.90;;;;;;5080485;28;20811;-81
2023/09/26 09:05:20;;;;;;;8.77;7.70;;;26.20;99.90;;;;;;5083938;28;20471;-82
2023/09/26 09:07:47;;;;;;;8.30;7.50;;;26.20;99.90;;;;;;5083150;28;20424;-82
2023/09/26 09:10:16;;;;;;;7.90;7.20;;;26.20;99.90;;;;;;5081527;28;20836;-81
2023/09/26 09:12:44;;;;;;;8.63;6.97;;;26.20;99.90;;;;;;5076848;28;20934;-82
2023/09/26 09:15:15;;;;;;;8.63;7.83;;;26.20;99.90;;;;;;5083620;28;21108;-81
2023/09/26 09:17:42;;;;;;;9.03;8.20;;;26.20;99.90;;;;;;5076575;28;20516;-82
2023/09/26 09:20:09;;;;;;;9.10;7.53;;;26.20;99.90;;;;;;5077769;28;20971;-82
2023/09/26 09:22:35;;;;;;;8.70;7.70;;;26.20;99.90;;;;;;5078440;28;20525;-82
2023/09/26 09:25:01;;;;;;;10.23;8.03;;;26.30;99.90;;;;;;5081621;28;21095;-81
2023/09/26 09:27:32;;;;;;;10.93;8.70;;;26.30;99.90;;;;;;5078853;28;20219;-82
2023/09/26 09:30:08;;;;;;;8.57;7.70;;;26.40;99.90;;;;;;5081944;28;20551;-82
2023/09/26 09:32:35;;;;;;;9.20;6.77;;;26.40;99.90;;;;;;5066133;28;20980;-82
2023/09/26 09:35:02;;;;;;;10.43;7.83;;;26.50;99.90;;;;;;5081680;28;20469;-82
2023/09/26 09:37:28;;;;;;;31.70;22.40;;;26.50;99.90;;;;;;5083701;28;20929;-82
2023/09/26 09:39:54;;;;;;;11.37;9.40;;;26.60;99.90;;;;;;5080404;28;20498;-82
2023/09/26 09:42:20;;;;;;;8.50;7.50;;;26.70;99.90;;;;;;5074213;28;20838;-82
2023/09/26 09:44:46;;;;;;;8.20;7.37;;;26.70;99.90;;;;;;5081561;28;20536;-82
2023/09/26 09:47:20;;;;;;;7.97;7.20;;;26.70;99.90;;;;;;5078481;28;20437;-81
2023/09/26 09:49:47;;;;;;;8.87;7.30;;;26.70;99.90;;;;;;5080599;28;20281;-82
2023/09/26 09:52:16;;;;;;;9.90;7.83;;;26.70;99.90;;;;;;5082132;28;20441;-81
2023/09/26 09:54:44;;;;;;;8.43;7.63;;;26.80;99.90;;;;;;5078524;28;20480;-82
2023/09/26 09:57:10;;;;;;;7.87;6.97;;;26.80;99.90;;;;;;5077803;28;20437;-82
2023/09/26 09:59:39;;;;;;;8.90;8.00;;;26.80;99.90;;;;;;5080581;28;20453;-82
2023/09/26 10:02:05;;;;;;;13.20;8.30;;;26.80;99.90;;;;;;5081391;28;21007;-81
2023/09/26 10:04:34;;;;;;;8.50;7.63;;;26.90;99.90;;;;;;5085251;28;20534;-82
2023/09/26 10:07:00;;;;;;;7.73;7.03;;;26.90;99.90;;;;;;5082452;28;20968;-82
2023/09/26 10:09:27;;;;;;;8.63;7.73;;;26.90;99.90;;;;;;5080032;28;20719;-82
2023/09/26 10:11:54;;;;;;;7.43;6.63;;;26.90;99.90;;;;;;5072008;28;20555;-82
2023/09/26 10:14:24;;;;;;;10.23;8.53;;;26.90;99.90;;;;;;5079887;28;20438;-82
2023/09/26 10:16:50;;;;;;;9.07;8.13;;;27.00;99.90;;;;;;5068495;28;20440;-82
2023/09/26 10:19:16;;;;;;;8.63;7.10;;;26.90;99.90;;;;;;5073389;28;20433;-82
2023/09/26 10:21:42;;;;;;;8.23;7.30;;;26.90;99.90;;;;;;5080395;28;20430;-82
2023/09/26 10:24:08;;;;;;;9.40;7.50;;;27.00;99.90;;;;;;5079803;28;20422;-82
2023/09/26 10:26:44;;;;;;;8.13;6.97;;;27.10;99.90;;;;;;5074594;28;20865;-82
2023/09/26 10:29:27;;;;;;;6.27;5.67;;;27.00;99.90;;;;;;5074731;28;20218;-82
2023/09/26 10:31:58;;;;;;;7.33;6.63;;;27.10;99.90;;;;;;5070636;28;20480;-81
2023/09/26 10:34:29;;;;;;;9.00;6.53;;;27.10;99.90;;;;;;5093562;27;20434;-82
2023/09/26 10:36:56;;;;;;;8.07;7.27;;;27.20;99.90;;;;;;5072986;28;20442;-81
2023/09/26 10:39:39;;;;;;;8.40;6.97;;;27.20;99.90;;;;;;5074583;28;20426;-82
2023/09/26 10:42:20;;;;;;;7.90;7.10;;;27.20;99.90;;;;;;5071356;28;20431;-82
2023/09/26 10:44:46;;;;;;;8.00;6.70;;;27.30;99.90;;;;;;5078072;28;20608;-82
2023/09/26 10:47:16;;;;;;;9.10;8.03;;;27.30;99.90;;;;;;5071196;28;20450;-82
2023/09/26 10:49:45;;;;;;;8.40;7.20;;;27.30;99.90;;;;;;5072202;28;20652;-82
2023/09/26 10:52:12;;;;;;;10.83;7.33;;;27.40;99.90;;;;;;5073226;28;20436;-82
2023/09/26 10:54:41;;;;;;;13.77;7.67;;;27.40;99.90;;;;;;5071569;28;20811;-82
2023/09/26 10:57:08;;;;;;;8.60;7.03;;;27.40;99.90;;;;;;5069867;28;20465;-81
2023/09/26 10:59:35;;;;;;;11.67;7.33;;;27.40;99.90;;;;;;5073388;28;20534;-81
2023/09/26 11:02:01;;;;;;;9.43;7.80;;;27.50;99.90;;;;;;5076881;28;20536;-82
2023/09/26 11:04:31;;;;;;;9.73;6.83;;;27.50;99.90;;;;;;5073766;28;20455;-81
2023/09/26 11:07:08;;;;;;;9.60;6.90;;;27.50;99.90;;;;;;5075410;28;20522;-82
2023/09/26 11:09:39;;;;;;;7.93;7.10;;;27.50;99.90;;;;;;5076606;28;20974;-82
2023/09/26 11:12:05;;;;;;;8.03;7.23;;;27.50;99.90;;;;;;5073165;28;20951;-82
2023/09/26 11:14:32;;;;;;;8.60;7.80;;;27.50;99.90;;;;;;5070839;28;21561;-81
2023/09/26 11:16:58;;;;;;;7.73;7.00;;;27.60;99.90;;;;;;5090274;27;20438;-81
2023/09/26 11:19:28;;;;;;;7.63;6.87;;;27.60;99.90;;;;;;5075969;28;20432;-82
2023/09/26 11:21:56;;;;;;;8.60;7.13;;;27.60;99.90;;;;;;5075542;28;20703;-82
2023/09/26 11:24:25;;;;;;;7.37;6.67;;;27.60;99.90;;;;;;5074636;28;20973;-81
2023/09/26 11:26:52;;;;;;;12.80;6.37;;;27.60;99.90;;;;;;5070878;28;20451;-82
2023/09/26 11:29:19;;;;;;;6.63;5.90;;;27.60;99.90;;;;;;5070784;28;20454;-82
2023/09/26 11:31:44;;;;;;;6.73;6.03;;;27.60;99.90;;;;;;5075992;28;20502;-82
2023/09/26 11:34:11;;;;;;;10.00;6.17;;;27.70;99.90;;;;;;5077973;28;20727;-83
2023/09/26 11:36:40;;;;;;;6.97;6.37;;;27.60;99.90;;;;;;5077358;28;20555;-82
2023/09/26 11:39:10;;;;;;;7.40;6.13;;;27.70;99.90;;;;;;5082850;28;20791;-81
2023/09/26 11:41:35;;;;;;;7.23;5.70;;;27.70;99.90;;;;;;5076267;28;20448;-81
2023/09/26 11:44:12;;;;;;;7.97;5.90;;;27.70;99.90;;;;;;5075603;28;20481;-81
2023/09/26 11:46:49;;;;;;;7.77;5.77;;;27.70;99.90;;;;;;5080707;28;20186;-82
2023/09/26 11:49:17;;;;;;;5.53;5.03;;;27.70;99.90;;;;;;5078386;28;20445;-82
2023/09/26 11:51:43;;;;;;;6.10;5.57;;;27.80;99.90;;;;;;5060708;28;20784;-81
2023/09/26 11:54:09;;;;;;;7.03;6.07;;;27.80;99.90;;;;;;5081177;28;20486;-82
2023/09/26 11:56:36;;;;;;;7.00;5.97;;;27.90;99.90;;;;;;5069398;28;20425;-82
2023/09/26 11:59:04;;;;;;;9.60;5.90;;;27.90;99.90;;;;;;5075998;28;20502;-81
2023/09/26 12:01:33;;;;;;;6.03;5.43;;;27.90;99.90;;;;;;5076887;28;21019;-81
2023/09/26 12:04:06;;;;;;;7.43;6.70;;;27.90;99.90;;;;;;5067504;28;20419;-82
2023/09/26 12:06:33;;;;;;;7.60;6.97;;;28.00;99.90;;;;;;5076002;28;20967;-82
2023/09/26 12:09:00;;;;;;;6.83;6.13;;;27.90;99.90;;;;;;5072725;28;20425;-82
2023/09/26 12:11:25;;;;;;;5.20;4.70;;;27.90;99.90;;;;;;5071127;28;20486;-82
2023/09/26 12:13:51;;;;;;;5.93;5.27;;;28.00;99.90;;;;;;5076022;28;20501;-81
2023/09/26 12:16:17;;;;;;;7.73;6.23;;;28.00;99.90;;;;;;5068502;28;20878;-82
2023/09/26 12:18:42;;;;;;;7.07;6.17;;;28.00;99.90;;;;;;5073352;28;20618;-82
2023/09/26 12:21:09;;;;;;;6.40;5.80;;;28.00;99.90;;;;;;5076135;28;20290;-82
2023/09/26 12:23:35;;;;;;;6.90;5.13;;;28.00;99.90;;;;;;5071868;28;20477;-82
2023/09/26 12:26:01;;;;;;;5.60;5.07;;;28.00;99.90;;;;;;5073629;28;20638;-82
2023/09/26 12:28:27;;;;;;;6.10;5.50;;;28.00;99.90;;;;;;5075225;28;20222;-82
2023/09/26 12:30:53;;;;;;;5.80;5.20;;;28.00;99.90;;;;;;5077433;28;20219;-82
2023/09/26 12:33:20;;;;;;;5.77;5.17;;;28.00;99.90;;;;;;5078254;28;20180;-82
2023/09/26 12:35:45;;;;;;;6.13;5.43;;;28.00;99.90;;;;;;5073338;28;20553;-82